Weather History for KANK - March, 2014

Change the Weather History Date:

Saturday, March 22, 2014

  Actual Average (KGUC) Record (KGUC)
Temperature  
Mean Temperature 40 °F -  
Max Temperature 52 °F 46 °F 66 °F (2004)
Min Temperature 27 °F 19 °F 6 °F (2008)
Degree Days  
Heating Degree Days 26    
Moisture  
Dew Point 19 °F    
Average Humidity 54    
Maximum Humidity 80    
Minimum Humidity 23    
Precipitation  
Precipitation 0.00 in - - ()
Sea Level Pressure  
Sea Level Pressure 30.13 in    
Wind  
Wind Speed 10 mph (SSE)    
Max Wind Speed 30 mph    
Max Gust Speed 40 mph    
Visibility 10 miles    
Events      
Averages and records for this station are not official NWS values.
T = Trace of Precipitation, MM = Missing Value Source: NWS Daily Summary

Daily Weather History Graph

Daily Weather History Graph

Search for Another Location

Airport or City:

Trip Planner

Search our weather history database for the weather conditions in past years. The results will help you decide how hot, cold, wet, or windy it might be!

Date:

Astronomy

Mar. 22, 2014 Rise Set
Actual Time 7:04 AM MDT 7:18 PM MDT
Civil Twilight 6:38 AM MDT 7:44 PM MDT
Nautical Twilight 6:07 AM MDT 8:15 PM MDT
Astronomical Twilight 5:35 AM MDT 8:47 PM MDT
Moon 12:36 AM MDT (3/22) 10:53 AM MDT (3/22)
Length of Visible Light 13h 06m
Length of Day
12h 13m
Waning Gibbous, 65% of the Moon is Illuminated
Mar 22
Waning Gibbous
Mar 23
Last Quarter
Mar 30
New
Apr 7
First Quarter
Apr 15
Full

Hourly Weather History & Observations

Time (MDT) Temp. Windchill Dew Point Humidity Pressure Visibility Wind Dir Wind Speed Gust Speed Precip Events Conditions
12:15 AM 33.8 °F 26.4 °F 19.2 °F 55% 30.16 in 10.0 mi SSE 9.2 mph 18.4 mph N/A   Mostly Cloudy
12:35 AM 33.8 °F 26.4 °F 19.4 °F 56% 30.15 in 10.0 mi SSE 9.2 mph - N/A   Mostly Cloudy
12:55 AM 33.1 °F 26.1 °F 19.0 °F 56% 30.15 in 10.0 mi SE 8.1 mph - N/A   Mostly Cloudy
1:15 AM 32.5 °F 25.5 °F 18.5 °F 56% 30.15 in 10.0 mi ESE 8.1 mph - N/A   Scattered Clouds
1:35 AM 32.0 °F 26.4 °F 18.0 °F 56% 30.15 in 10.0 mi SE 5.8 mph - N/A   Mostly Cloudy
1:55 AM 31.1 °F 25.4 °F 17.6 °F 57% 30.14 in 10.0 mi ESE 5.8 mph - N/A   Mostly Cloudy
2:15 AM 30.4 °F 22.9 °F 16.7 °F 57% 30.14 in 10.0 mi ESE 8.1 mph - N/A   Scattered Clouds
2:35 AM 30.4 °F 21.5 °F 16.7 °F 57% 30.14 in 10.0 mi SE 10.4 mph - N/A   Mostly Cloudy
2:55 AM 29.8 °F 23.9 °F 16.5 °F 58% 30.13 in 10.0 mi SE 5.8 mph - N/A   Scattered Clouds
3:15 AM 29.3 °F 23.2 °F 16.3 °F 58% 30.13 in 10.0 mi ESE 5.8 mph - N/A   Clear
3:35 AM 28.4 °F 24.6 °F 16.2 °F 60% 30.12 in 10.0 mi ESE 3.5 mph - N/A   Clear
3:55 AM 27.9 °F 22.6 °F 16.2 °F 62% 30.11 in 10.0 mi ESE 4.6 mph - N/A   Clear
4:15 AM 27.5 °F 22.2 °F 16.0 °F 62% 30.10 in 10.0 mi ESE 4.6 mph - N/A   Scattered Clouds
4:35 AM 27.1 °F 23.2 °F 16.7 °F 65% 30.10 in 10.0 mi SSE 3.5 mph - N/A   Mostly Cloudy
4:55 AM 27.3 °F 22.0 °F 16.3 °F 63% 30.10 in 10.0 mi ESE 4.6 mph - N/A   Mostly Cloudy
5:15 AM 27.3 °F 22.0 °F 16.3 °F 63% 30.10 in 10.0 mi ESE 4.6 mph - N/A   Scattered Clouds
5:35 AM 27.0 °F 23.0 °F 16.3 °F 64% 30.10 in 10.0 mi SSE 3.5 mph - N/A   Mostly Cloudy
5:55 AM 27.5 °F 21.1 °F 16.5 °F 63% 30.10 in 10.0 mi SSE 5.8 mph - N/A   Overcast
6:15 AM 27.7 °F 22.4 °F 16.3 °F 62% 30.11 in 10.0 mi South 4.6 mph - N/A   Overcast
6:35 AM 27.9 °F 24.0 °F 16.3 °F 62% 30.11 in 10.0 mi SSE 3.5 mph - N/A   Overcast
6:55 AM 28.0 °F 21.7 °F 16.3 °F 62% 30.11 in 10.0 mi South 5.8 mph - N/A   Overcast
7:15 AM 28.0 °F 22.8 °F 15.8 °F 60% 30.11 in 10.0 mi SE 4.6 mph - N/A   Overcast
7:35 AM 28.2 °F 22.0 °F 15.8 °F 60% 30.12 in 10.0 mi SE 5.8 mph - N/A   Overcast
7:55 AM 28.8 °F 22.6 °F 16.0 °F 59% 30.12 in 10.0 mi SE 5.8 mph - N/A   Overcast
8:15 AM 30.2 °F 22.6 °F 16.3 °F 56% 30.12 in 10.0 mi SE 8.1 mph - N/A   Overcast
8:35 AM 30.7 °F - 16.2 °F 55% 30.11 in 10.0 mi Calm Calm - N/A   Mostly Cloudy
8:55 AM 31.5 °F 26.8 °F 16.3 °F 54% 30.10 in 10.0 mi NNE 4.6 mph - N/A   Mostly Cloudy
9:15 AM 32.0 °F - 16.7 °F 53% 30.10 in 10.0 mi Calm Calm - N/A   Clear
9:35 AM 33.6 °F 30.6 °F 16.7 °F 50% 30.09 in 10.0 mi NNE 3.5 mph - N/A   Clear
9:55 AM 35.8 °F - 16.9 °F 46% 30.09 in 10.0 mi Calm Calm - N/A   Clear
10:15 AM 37.6 °F - 16.9 °F 43% 30.08 in 10.0 mi Calm Calm - N/A   Clear
10:35 AM 39.6 °F 36.3 °F 17.4 °F 41% 30.07 in 10.0 mi SE 4.6 mph - N/A   Clear
10:55 AM 44.2 °F 37.6 °F 17.4 °F 34% 30.06 in 10.0 mi South 13.8 mph 19.6 mph N/A   Scattered Clouds
11:15 AM 48.2 °F - 17.6 °F 30% 30.05 in 10.0 mi SW 13.8 mph 18.4 mph N/A   Mostly Cloudy
11:35 AM 47.1 °F - 19.9 °F 34% 30.05 in 10.0 mi WSW 15.0 mph 28.8 mph N/A   Scattered Clouds
11:55 AM 47.5 °F - 20.7 °F 35% 30.04 in 10.0 mi WSW 12.7 mph 25.3 mph N/A   Clear
12:15 PM 50.7 °F - 17.8 °F 27% 30.03 in 10.0 mi SW 21.9 mph 27.6 mph N/A   Clear
12:35 PM 52.3 °F - 16.3 °F 24% 30.02 in 10.0 mi SW 24.2 mph 29.9 mph N/A   Clear
12:55 PM 52.7 °F - 15.4 °F 23% 30.02 in 10.0 mi WSW 25.3 mph 33.4 mph N/A   Clear
1:15 PM 52.7 °F - 15.6 °F 23% 30.03 in 10.0 mi SW 24.2 mph 33.4 mph N/A   Clear
1:35 PM 52.3 °F - 17.1 °F 25% 30.03 in 10.0 mi WSW 23.0 mph 34.5 mph N/A   Clear
1:55 PM 51.4 °F - 18.3 °F 27% 30.02 in 10.0 mi West 21.9 mph 33.4 mph N/A   Clear
2:15 PM 50.0 °F - 19.4 °F 30% 30.02 in 10.0 mi West 25.3 mph 36.8 mph N/A   Clear
2:35 PM 49.8 °F - 19.0 °F 30% 30.02 in 10.0 mi WSW 25.3 mph 38.0 mph N/A   Clear
2:55 PM 50.0 °F - 19.4 °F 30% 30.03 in 10.0 mi WSW 27.6 mph 40.3 mph N/A   Clear
3:15 PM 48.4 °F - 22.8 °F 37% 30.05 in 10.0 mi WSW 29.9 mph 36.8 mph N/A   Clear
3:35 PM 47.3 °F - 23.2 °F 39% 30.05 in 10.0 mi WSW 26.5 mph 35.7 mph N/A   Clear
3:55 PM 47.5 °F - 23.7 °F 39% 30.06 in 10.0 mi WSW 25.3 mph 32.2 mph N/A   Clear
4:15 PM 44.6 °F 36.9 °F 26.2 °F 49% 30.06 in 10.0 mi WSW 18.4 mph 34.5 mph N/A   Clear
4:35 PM 45.5 °F 38.3 °F 26.4 °F 47% 30.10 in 10.0 mi NW 17.3 mph 27.6 mph N/A   Scattered Clouds
4:55 PM 40.6 °F 32.0 °F 30.4 °F 67% 30.10 in 10.0 mi North 17.3 mph 27.6 mph N/A   Mostly Cloudy
5:15 PM 42.3 °F 38.6 °F 31.5 °F 66% 30.11 in 10.0 mi East 5.8 mph - N/A   Mostly Cloudy
5:35 PM 44.4 °F 42.9 °F 27.7 °F 52% 30.13 in 10.0 mi North 3.5 mph - N/A   Mostly Cloudy
5:55 PM 43.0 °F 38.2 °F 26.4 °F 52% 30.13 in 10.0 mi NNW 8.1 mph - N/A   Mostly Cloudy
6:15 PM 43.7 °F 42.1 °F 24.3 °F 46% 30.14 in 10.0 mi NW 3.5 mph - N/A   Scattered Clouds
6:35 PM 36.1 °F 26.2 °F 21.4 °F 55% 30.17 in 10.0 mi ESE 17.3 mph 24.2 mph N/A   Mostly Cloudy
6:55 PM 32.5 °F 21.9 °F 21.2 °F 63% 30.18 in 10.0 mi ESE 16.1 mph 27.6 mph N/A   Mostly Cloudy
7:15 PM 31.1 °F 19.7 °F 21.2 °F 67% 30.20 in 10.0 mi ESE 17.3 mph 25.3 mph N/A   Mostly Cloudy
7:35 PM 30.6 °F 18.2 °F 21.0 °F 68% 30.20 in 10.0 mi ESE 19.6 mph 28.8 mph N/A   Mostly Cloudy
7:55 PM 30.2 °F 18.5 °F 20.8 °F 68% 30.23 in 10.0 mi ESE 17.3 mph 29.9 mph N/A   Scattered Clouds
8:15 PM 30.7 °F 19.6 °F 21.0 °F 67% 30.25 in 10.0 mi SE 16.1 mph 25.3 mph N/A   Scattered Clouds
8:35 PM 30.4 °F 19.1 °F 21.0 °F 68% 30.26 in 10.0 mi ESE 16.1 mph 20.7 mph N/A   Scattered Clouds
8:55 PM 30.0 °F 19.5 °F 21.2 °F 70% 30.27 in 10.0 mi ESE 13.8 mph 19.6 mph N/A   Scattered Clouds
9:15 PM 29.5 °F 19.3 °F 21.2 °F 71% 30.27 in 10.0 mi SE 12.7 mph 19.6 mph N/A   Clear
9:35 PM 29.3 °F 19.1 °F 21.4 °F 72% 30.29 in 10.0 mi ESE 12.7 mph - N/A   Clear
9:55 PM 29.3 °F 20.2 °F 21.7 °F 73% 30.29 in 10.0 mi ESE 10.4 mph 16.1 mph N/A   Scattered Clouds
10:15 PM 29.3 °F 21.5 °F 21.2 °F 72% 30.29 in 10.0 mi SE 8.1 mph - N/A   Scattered Clouds
10:35 PM 29.1 °F - 20.8 °F 71% 30.31 in 10.0 mi Calm Calm - N/A   Clear
10:55 PM 28.6 °F 19.9 °F 21.9 °F 76% 30.31 in 10.0 mi SE 9.2 mph - N/A   Clear
11:15 PM 28.0 °F 21.7 °F 22.1 °F 78% 30.32 in 10.0 mi ESE 5.8 mph - N/A   Scattered Clouds
11:35 PM 27.5 °F 21.1 °F 22.1 °F 80% 30.32 in 10.0 mi ESE 5.8 mph - N/A   Scattered Clouds
11:55 PM 27.5 °F 22.2 °F 22.1 °F 80% 30.32 in 10.0 mi ESE 4.6 mph - N/A   Scattered Clouds